createdAt,value
2022-10-17T00:00:05.445Z,99477.59
2022-10-17T00:02:55.593Z,99470.59
2022-10-17T00:05:25.015Z,99477.59
2022-10-17T00:07:53.197Z,99468.97
2022-10-17T00:10:21.636Z,99479.63
2022-10-17T00:12:50.952Z,99480.44
2022-10-17T00:15:20.521Z,99478.59
2022-10-17T00:17:51.605Z,99480.44
2022-10-17T00:20:19.431Z,99479.63
2022-10-17T00:22:46.902Z,99477.13
2022-10-17T00:25:14.829Z,99477.13
2022-10-17T00:27:42.683Z,99477.13
2022-10-17T00:30:14.282Z,99481.63
2022-10-17T00:32:41.747Z,99487.78
2022-10-17T00:35:09.954Z,99492.28
2022-10-17T00:37:37.537Z,99492.28
2022-10-17T00:40:07.142Z,99494.09
2022-10-17T00:42:34.971Z,99489.63
2022-10-17T00:45:17.488Z,99496.78
2022-10-17T00:47:51.573Z,99494.09
2022-10-17T00:50:20.103Z,99495.94
2022-10-17T00:52:48.824Z,99492.28
2022-10-17T00:55:18.190Z,99492.28
2022-10-17T00:57:46.170Z,99497.63
2022-10-17T01:00:15.215Z,99494.94
2022-10-17T01:02:42.666Z,99494.09
2022-10-17T01:05:11.473Z,99490.63
2022-10-17T01:07:41.673Z,99491.44
2022-10-17T01:10:10.876Z,99500.28
2022-10-17T01:13:05.914Z,99502.09
2022-10-17T01:15:36.557Z,99491.44
2022-10-17T01:18:22.603Z,99501.28
2022-10-17T01:20:59.012Z,99499.44
2022-10-17T01:23:47.693Z,99495.13
2022-10-17T01:26:45.580Z,99490.63
2022-10-17T01:29:33.709Z,99498.59
2022-10-17T01:32:18.745Z,99492.47
2022-10-17T01:35:07.951Z,99495.13
2022-10-17T01:38:12.853Z,99498.59
2022-10-17T01:40:49.138Z,99501.28
2022-10-17T01:43:29.458Z,99497.78
2022-10-17T01:46:02.648Z,99493.44
2022-10-17T01:48:35.753Z,99505.78
2022-10-17T01:51:09.154Z,99504.97
2022-10-17T01:53:42.344Z,99499.63
2022-10-17T01:56:13.065Z,99498.78
2022-10-17T01:58:47.392Z,99508.63
2022-10-17T02:01:17.298Z,99513.94
2022-10-17T02:03:47.458Z,99515.63
2022-10-17T02:06:15.069Z,99503.28
2022-10-17T02:08:46.049Z,99506.13
2022-10-17T02:11:15.992Z,99517.63
2022-10-17T02:14:04.223Z,99514.97
2022-10-17T02:16:35.029Z,99514.09
2022-10-17T02:19:29.883Z,99506.97
2022-10-17T02:22:21.298Z,99512.28
2022-10-17T02:25:19.649Z,99513.28
2022-10-17T02:27:57.537Z,99510.63
2022-10-17T02:30:39.922Z,99513.28
2022-10-17T02:33:23.193Z,99505.28
2022-10-17T02:35:55.110Z,99505.28
2022-10-17T02:38:25.424Z,99510.63
2022-10-17T02:40:53.364Z,99504.47
2022-10-17T02:43:21.992Z,99495.66
2022-10-17T02:45:52.501Z,99499.31
2022-10-17T02:48:43.691Z,99496.63
2022-10-17T02:51:40.222Z,99513.47
2022-10-17T02:54:16.521Z,99511.63
2022-10-17T02:56:51.656Z,99513.28
2022-10-17T02:59:22.567Z,99514.31
2022-10-17T03:01:51.573Z,99512.47
2022-10-17T03:04:19.520Z,99506.47
2022-10-17T03:06:48.381Z,99515.28
2022-10-17T03:09:16.313Z,99512.63
2022-10-17T03:11:43.824Z,99511.81
2022-10-17T03:14:11.134Z,99523.28
2022-10-17T03:16:38.724Z,99529.63
2022-10-17T03:19:06.229Z,99537.63
2022-10-17T03:21:36.336Z,99537.63
2022-10-17T03:24:04.286Z,99540.28
2022-10-17T03:26:31.939Z,99535.91
2022-10-17T03:28:59.236Z,99537.63
2022-10-17T03:31:26.892Z,99548.28
2022-10-17T03:33:54.171Z,99553.75
2022-10-17T03:36:22.029Z,99545.75
2022-10-17T03:38:49.393Z,99545.75
2022-10-17T03:41:16.983Z,99549.44
2022-10-17T03:43:44.358Z,99558.25
2022-10-17T03:46:11.871Z,99548.59
2022-10-17T03:48:39.199Z,99551.25
2022-10-17T03:51:09.223Z,99552.91
2022-10-17T03:53:36.546Z,99553.91
2022-10-17T03:56:12.469Z,99553.91
2022-10-17T03:58:40.460Z,99559.25
2022-10-17T04:01:10.470Z,99554.94
2022-10-17T04:03:38.281Z,99552.25
2022-10-17T04:06:06.792Z,99555.75
2022-10-17T04:08:34.833Z,99560.25
2022-10-17T04:11:04.447Z,99562.91
2022-10-17T04:13:31.963Z,99552.25
2022-10-17T04:16:02.348Z,99552.25
2022-10-17T04:18:29.684Z,99555.91
2022-10-17T04:20:57.446Z,99561.25
2022-10-17T04:23:26.470Z,99562.91
2022-10-17T04:25:58.504Z,99566.56
2022-10-17T04:28:27.152Z,99568.41
2022-10-17T04:30:58.157Z,99577.22
2022-10-17T04:33:25.689Z,99576.41
2022-10-17T04:36:13.632Z,99577.22
2022-10-17T04:38:41.383Z,99579.91
2022-10-17T04:41:13.010Z,99572.91
2022-10-17T04:43:41.204Z,99576.59
2022-10-17T04:46:11.681Z,99582.75
2022-10-17T04:48:40.113Z,99573.94
2022-10-17T04:51:12.123Z,99566.94
2022-10-17T04:53:40.812Z,99563.28
2022-10-17T04:56:14.742Z,99572.25
2022-10-17T04:58:43.026Z,99561.59
2022-10-17T05:01:12.905Z,99558.13
2022-10-17T05:03:40.641Z,99566.94
2022-10-17T05:06:14.721Z,99556.28
2022-10-17T05:08:43.034Z,99572.25
2022-10-17T05:11:20.989Z,99572.25
2022-10-17T05:13:58.562Z,99582.91
2022-10-17T05:16:27.814Z,99586.59
2022-10-17T05:18:57.184Z,99581.28
2022-10-17T05:21:27.136Z,99582.91
2022-10-17T05:23:55.192Z,99581.28
2022-10-17T05:26:23.961Z,99581.06
2022-10-17T05:28:54.853Z,99577.59
2022-10-17T05:31:22.505Z,99588.25
2022-10-17T05:33:49.855Z,99597.91
2022-10-17T05:36:17.445Z,99602.38
2022-10-17T05:38:49.301Z,99608.38
2022-10-17T05:41:16.910Z,99609.22
2022-10-17T05:43:44.390Z,99603.88
2022-10-17T05:46:12.169Z,99603.88
2022-10-17T05:48:39.425Z,99603.88
2022-10-17T05:51:09.392Z,99610.88
2022-10-17T05:53:40.045Z,99608.38
2022-10-17T05:56:10.759Z,99614.53
2022-10-17T05:58:50.348Z,99622.53
2022-10-17T06:01:19.486Z,99625.38
2022-10-17T06:03:46.751Z,99627.22
2022-10-17T06:06:15.403Z,99623.53
2022-10-17T06:08:43.560Z,99628.88
2022-10-17T06:11:12.402Z,99635.84
2022-10-17T06:13:41.193Z,99635.03
2022-10-17T06:16:09.254Z,99639.38
2022-10-17T06:18:42.864Z,99635.84
2022-10-17T06:21:12.507Z,99651.84
2022-10-17T06:23:39.860Z,99646.50
2022-10-17T06:26:07.653Z,99656.19
2022-10-17T06:28:35.855Z,99652.69
2022-10-17T06:31:11.544Z,99658.84
2022-10-17T06:33:39.509Z,99658.03
2022-10-17T06:36:10.139Z,99662.50
2022-10-17T06:38:37.731Z,99661.50
2022-10-17T06:41:10.024Z,99660.50
2022-10-17T06:43:37.939Z,99660.50
2022-10-17T06:46:05.745Z,99656.03
2022-10-17T06:48:33.319Z,99662.19
2022-10-17T06:51:06.110Z,99662.19
2022-10-17T06:53:34.941Z,99667.50
2022-10-17T06:56:04.196Z,99671.81
2022-10-17T06:58:36.006Z,99671.69
2022-10-17T07:03:34.713Z,99668.88
2022-10-17T07:06:03.281Z,99681.16
2022-10-17T07:08:30.775Z,99675.84
2022-10-17T07:10:58.723Z,99683.69
2022-10-17T07:13:26.013Z,99685.31
2022-10-17T07:18:25.671Z,99687.00
2022-10-17T07:20:55.096Z,99686.19
2022-10-17T07:23:23.054Z,99688.66
2022-10-17T07:25:50.774Z,99691.16
2022-10-17T07:28:18.506Z,99697.50
2022-10-17T07:30:49.316Z,99703.50
2022-10-17T07:33:18.019Z,99699.81
2022-10-17T07:35:45.548Z,99696.34
2022-10-17T07:38:12.837Z,99699.00
2022-10-17T07:40:40.567Z,99705.97
2022-10-17T07:43:07.973Z,99701.47
2022-10-17T07:45:35.498Z,99703.16
2022-10-17T07:48:02.837Z,99703.16
2022-10-17T07:50:31.699Z,99703.16
2022-10-17T07:52:59.088Z,99703.16
2022-10-17T07:55:26.641Z,99710.13
2022-10-17T07:57:53.973Z,99711.81
2022-10-17T08:00:21.588Z,99712.63
2022-10-17T08:02:49.091Z,99711.81
2022-10-17T08:05:16.585Z,99716.13
2022-10-17T08:07:44.077Z,99711.66
2022-10-17T08:10:13.484Z,99708.97
2022-10-17T08:12:40.986Z,99710.63
2022-10-17T08:15:10.121Z,99706.13
2022-10-17T08:17:38.858Z,99711.28
2022-10-17T08:20:06.935Z,99708.63
2022-10-17T08:22:34.910Z,99708.47
2022-10-17T08:25:02.600Z,99716.47
2022-10-17T08:27:30.133Z,99707.44
2022-10-17T08:29:57.635Z,99707.44
2022-10-17T08:32:27.240Z,99713.59
2022-10-17T08:34:56.317Z,99712.63
2022-10-17T08:37:24.058Z,99709.13
2022-10-17T08:39:51.609Z,99716.09
2022-10-17T08:42:21.705Z,99722.09
2022-10-17T08:45:01.030Z,99721.28
2022-10-17T08:47:38.249Z,99728.25
2022-10-17T08:50:10.453Z,99725.44
2022-10-17T08:52:52.405Z,99725.44
2022-10-17T08:55:40.001Z,99720.94
2022-10-17T08:58:17.047Z,99720.75
2022-10-17T09:01:20.533Z,99719.94
2022-10-17T09:04:21.794Z,99720.75
2022-10-17T09:07:01.089Z,99717.94
2022-10-17T09:09:34.373Z,99718.75
2022-10-17T09:12:24.754Z,99724.09
2022-10-17T09:15:13.708Z,99725.75
2022-10-17T09:18:02.353Z,99710.59
2022-10-17T09:20:38.278Z,99714.09
2022-10-17T09:23:21.136Z,99714.09
2022-10-17T09:25:52.482Z,99718.41
2022-10-17T09:28:27.754Z,99716.59
2022-10-17T09:31:05.112Z,99714.75
2022-10-17T13:21:30.065Z,99644.63
2022-10-17T13:23:57.667Z,99644.44
2022-10-17T13:26:27.718Z,99649.78
2022-10-17T13:29:04.742Z,99639.94
2022-10-17T13:31:35.870Z,99638.94
2022-10-17T13:34:19.484Z,99637.28
2022-10-17T13:36:49.117Z,99634.44
2022-10-17T13:39:32.644Z,99637.09
2022-10-17T13:42:28.604Z,99633.44
2022-10-17T13:44:58.386Z,99635.13
2022-10-17T13:47:28.816Z,99631.47
2022-10-17T13:49:58.333Z,99635.94
2022-10-17T13:52:30.155Z,99636.78
2022-10-17T13:55:17.567Z,99634.94
2022-10-17T13:57:45.086Z,99629.41
2022-10-17T14:00:20.743Z,99625.75
2022-10-17T14:02:48.826Z,99632.09
2022-10-17T14:05:21.752Z,99633.75
2022-10-17T14:08:11.230Z,99634.59
2022-10-17T14:10:41.685Z,99637.25
2022-10-17T14:13:23.798Z,99629.25
2022-10-17T14:15:53.916Z,99630.06
2022-10-17T14:18:26.803Z,99629.25
2022-10-17T14:21:34.003Z,99628.25
2022-10-17T14:23:44.020Z,99627.22
2022-10-17T14:26:16.814Z,99631.75
2022-10-17T14:29:05.023Z,99629.06
2022-10-17T14:31:37.008Z,99627.22
2022-10-17T14:34:05.414Z,99630.72
2022-10-17T14:36:38.051Z,99623.75
2022-10-17T14:39:13.343Z,99623.75
2022-10-17T14:41:45.411Z,99625.38
2022-10-17T14:44:24.060Z,99629.06
2022-10-17T14:46:55.990Z,99630.91
2022-10-17T14:49:39.491Z,99631.91
2022-10-17T14:52:18.340Z,99627.41
2022-10-17T14:54:57.795Z,99629.25
2022-10-17T14:57:31.283Z,99626.56
2022-10-17T14:59:58.727Z,99628.41
2022-10-17T15:02:28.483Z,99623.09
2022-10-17T15:04:56.313Z,99631.91
2022-10-17T15:07:24.343Z,99624.06
2022-10-17T15:09:53.670Z,99629.41
2022-10-17T15:12:25.587Z,99626.75
2022-10-17T15:14:53.328Z,99628.59
2022-10-17T15:17:29.933Z,99619.75
2022-10-17T15:19:57.885Z,99619.09
2022-10-17T15:22:25.402Z,99623.63
2022-10-17T15:24:52.846Z,99621.78
2022-10-17T15:27:22.817Z,99625.44
2022-10-17T15:29:51.607Z,99621.91
2022-10-17T15:32:19.497Z,99626.44
2022-10-17T15:34:46.999Z,99626.44
2022-10-17T15:37:21.976Z,99624.78
2022-10-17T15:39:54.806Z,99624.78
2022-10-17T15:42:26.941Z,99613.25
2022-10-17T15:44:54.552Z,99612.44
2022-10-17T15:47:27.414Z,99616.94
2022-10-17T15:49:55.497Z,99624.94
2022-10-17T15:52:23.911Z,99616.13
2022-10-17T15:54:52.665Z,99612.78
2022-10-17T15:57:24.555Z,99616.47
2022-10-17T15:59:54.022Z,99618.13
2022-10-17T16:02:23.508Z,99616.47
2022-10-17T16:04:52.857Z,99621.78
2022-10-17T16:07:20.997Z,99615.63
2022-10-17T16:09:48.414Z,99627.13
2022-10-17T16:12:26.702Z,99616.66
2022-10-17T16:14:54.759Z,99609.47
2022-10-17T16:17:22.323Z,99617.47
2022-10-17T16:19:49.965Z,99617.47
2022-10-17T16:22:38.550Z,99616.66
2022-10-17T16:25:09.799Z,99614.81
2022-10-17T16:27:38.334Z,99626.31
2022-10-17T16:30:07.594Z,99634.47
2022-10-17T16:32:35.178Z,99631.81
2022-10-17T16:35:02.680Z,99630.81
2022-10-17T16:37:30.384Z,99634.47
2022-10-17T16:39:57.737Z,99628.31
2022-10-17T16:42:25.307Z,99626.47
2022-10-17T16:44:52.657Z,99627.50
2022-10-17T16:47:20.168Z,99628.31
2022-10-17T16:49:47.548Z,99633.66
2022-10-17T16:52:15.632Z,99634.47
2022-10-17T16:54:42.938Z,99630.16
2022-10-17T16:57:10.567Z,99626.66
2022-10-17T16:59:37.996Z,99632.84
2022-10-17T17:02:06.083Z,99632.84
2022-10-17T17:04:33.577Z,99632.84
2022-10-17T17:07:01.263Z,99633.81
2022-10-17T17:09:28.734Z,99625.81
2022-10-17T17:11:56.308Z,99624.16
2022-10-17T17:14:23.774Z,99629.50
2022-10-17T17:16:51.419Z,99632.19
2022-10-17T17:19:18.826Z,99624.16
2022-10-17T17:21:52.461Z,99619.81
2022-10-17T17:24:21.519Z,99626.84
2022-10-17T17:26:54.254Z,99629.50
2022-10-17T17:29:22.856Z,99627.66
2022-10-17T17:31:51.021Z,99624.16
2022-10-17T17:34:18.619Z,99625.16
2022-10-17T17:36:47.233Z,99627.84
2022-10-17T17:39:15.683Z,99626.84
2022-10-17T17:41:44.193Z,99629.50
2022-10-17T17:44:18.291Z,99627.84
2022-10-17T17:46:46.333Z,99630.50
2022-10-17T17:49:14.086Z,99634.03
2022-10-17T17:51:45.979Z,99620.84
2022-10-17T17:54:14.209Z,99620.84
2022-10-17T17:56:42.039Z,99626.00
2022-10-17T17:59:12.289Z,99624.16
2022-10-17T18:01:40.431Z,99624.34
2022-10-17T18:04:08.979Z,99627.84
2022-10-17T18:06:38.886Z,99624.34
2022-10-17T18:09:08.452Z,99626.19
2022-10-17T18:11:37.469Z,99626.19
2022-10-17T18:14:08.134Z,99626.19
2022-10-17T18:16:37.949Z,99636.03
2022-10-17T18:19:07.437Z,99629.69
2022-10-17T18:21:36.328Z,99629.88
2022-10-17T18:24:04.847Z,99627.22
2022-10-17T18:26:32.997Z,99626.19
2022-10-17T18:29:00.417Z,99627.22
2022-10-17T18:31:32.089Z,99624.53
2022-10-17T18:34:00.262Z,99620.84
2022-10-17T18:36:29.556Z,99622.84
2022-10-17T18:39:00.664Z,99628.19
2022-10-17T18:41:28.868Z,99623.69
2022-10-17T18:43:56.723Z,99633.53
2022-10-17T18:46:30.178Z,99631.88
2022-10-17T18:48:58.385Z,99633.53
2022-10-17T18:51:26.869Z,99626.56
2022-10-17T18:53:56.419Z,99623.03
2022-10-17T18:56:25.165Z,99620.34
2022-10-17T18:58:53.030Z,99634.56
2022-10-17T19:01:22.828Z,99632.88
2022-10-17T19:03:52.382Z,99639.88
2022-10-17T19:06:23.268Z,99639.88
2022-10-17T19:08:50.962Z,99633.91
2022-10-17T19:11:21.869Z,99635.53
2022-10-17T19:13:49.644Z,99633.03
2022-10-17T19:16:24.629Z,99640.06
2022-10-17T19:19:00.613Z,99639.22
2022-10-17T19:21:28.172Z,99633.03
2022-10-17T19:23:58.232Z,99628.56
2022-10-17T19:26:27.627Z,99632.22
2022-10-17T19:28:55.189Z,99631.22
2022-10-17T19:31:27.114Z,99634.88
2022-10-17T19:33:55.936Z,99632.22
2022-10-17T19:36:32.356Z,99632.22
2022-10-17T19:39:06.392Z,99627.91
2022-10-17T19:41:35.994Z,99626.88
2022-10-17T19:44:03.533Z,99635.91
2022-10-17T19:46:33.789Z,99633.25
2022-10-17T19:49:01.546Z,99629.72
2022-10-17T19:51:29.997Z,99628.91
2022-10-17T19:54:02.519Z,99623.56
2022-10-17T19:56:33.260Z,99620.88
2022-10-17T19:59:00.676Z,99621.91
2022-10-17T20:01:32.380Z,99623.56
2022-10-17T20:04:00.423Z,99621.91
2022-10-17T20:06:27.983Z,99622.91
2022-10-17T20:08:55.975Z,99621.09
2022-10-17T20:11:26.082Z,99620.22
2022-10-17T20:13:54.896Z,99620.22
2022-10-17T20:16:25.929Z,99626.44
2022-10-17T20:18:56.917Z,99620.22
2022-10-17T20:21:27.385Z,99623.09
2022-10-17T20:23:55.154Z,99626.44
2022-10-17T20:26:37.088Z,99626.59
2022-10-17T20:29:11.974Z,99623.91
2022-10-17T20:31:41.724Z,99622.25
2022-10-17T20:34:11.683Z,99617.75
2022-10-17T20:36:39.295Z,99622.25
2022-10-17T20:39:07.458Z,99618.59
2022-10-17T20:41:35.125Z,99617.75
2022-10-17T20:44:02.573Z,99610.75
2022-10-17T20:46:36.976Z,99621.44
2022-10-17T20:49:07.548Z,99615.25
2022-10-17T20:51:36.111Z,99604.59
2022-10-17T20:54:04.463Z,99618.91
2022-10-17T20:56:33.390Z,99615.25
2022-10-17T20:59:04.509Z,99608.25
2022-10-17T21:01:34.185Z,99612.75
2022-10-17T21:04:21.374Z,99606.59
2022-10-17T21:06:51.842Z,99613.59
2022-10-17T21:09:20.166Z,99606.59
2022-10-17T21:11:51.114Z,99611.94
2022-10-17T21:14:18.825Z,99611.94
2022-10-17T21:16:46.535Z,99610.25
2022-10-17T21:19:14.889Z,99600.44
2022-10-17T21:21:44.839Z,99599.59
2022-10-17T21:24:14.582Z,99610.25
2022-10-17T21:26:43.586Z,99604.94
2022-10-17T21:29:13.112Z,99610.25
2022-10-17T21:31:43.448Z,99603.28
2022-10-17T21:34:17.661Z,99613.94
2022-10-17T21:36:45.524Z,99608.63
2022-10-17T21:39:14.098Z,99606.97
2022-10-17T21:41:42.985Z,99608.63
2022-10-17T21:44:16.893Z,99617.63
2022-10-17T21:46:44.765Z,99609.63
2022-10-17T21:49:14.156Z,99607.97
2022-10-17T21:51:42.275Z,99610.63
2022-10-17T21:54:09.642Z,99603.66
2022-10-17T21:56:37.753Z,99599.97
2022-10-17T21:59:06.793Z,99592.97
2022-10-17T22:01:37.325Z,99597.28
2022-10-17T22:04:07.494Z,99592.97
2022-10-17T22:06:40.318Z,99596.47
2022-10-17T22:09:14.753Z,99588.63
2022-10-17T22:11:45.389Z,99589.66
2022-10-17T22:14:15.286Z,99585.97
2022-10-17T22:16:44.949Z,99601.16
2022-10-17T22:19:14.070Z,99596.63
2022-10-17T22:21:42.216Z,99590.47
2022-10-17T22:24:12.519Z,99592.13
2022-10-17T22:26:40.707Z,99586.97
2022-10-17T22:29:08.912Z,99586.13
2022-10-17T22:31:37.781Z,99587.97
2022-10-17T22:34:06.012Z,99585.31
2022-10-17T22:36:35.084Z,99587.97
2022-10-17T22:39:03.692Z,99585.47
2022-10-17T22:41:31.418Z,99586.31
2022-10-17T22:43:58.841Z,99586.31
2022-10-17T22:46:26.457Z,99587.97
2022-10-17T22:48:53.839Z,99583.66
2022-10-17T22:51:21.515Z,99581.97
2022-10-17T22:53:48.834Z,99581.97
2022-10-17T22:56:19.309Z,99581.00
2022-10-17T22:58:47.292Z,99578.31
2022-10-17T23:01:17.785Z,99581.00
2022-10-17T23:03:45.497Z,99576.66
2022-10-17T23:06:13.771Z,99579.31
2022-10-17T23:08:41.148Z,99572.34
2022-10-17T23:11:09.649Z,99575.81
2022-10-17T23:13:37.728Z,99571.50
2022-10-17T23:16:05.498Z,99567.00
2022-10-17T23:18:32.925Z,99567.00
2022-10-17T23:21:00.458Z,99564.50
2022-10-17T23:23:27.799Z,99573.31
2022-10-17T23:25:56.333Z,99573.31
2022-10-17T23:28:23.739Z,99558.34
2022-10-17T23:30:51.365Z,99557.53
2022-10-17T23:33:18.611Z,99563.69
2022-10-17T23:35:46.166Z,99558.34
2022-10-17T23:38:13.444Z,99557.53
2022-10-17T23:40:40.996Z,99558.34
2022-10-17T23:43:08.493Z,99558.34
2022-10-17T23:45:37.213Z,99558.34
2022-10-17T23:48:05.455Z,99562.00
2022-10-17T23:50:33.034Z,99559.34
2022-10-17T23:53:00.377Z,99560.34
2022-10-17T23:55:28.065Z,99570.19
2022-10-17T23:57:55.424Z,99560.34
